Time;durP1;ratioP1;P1;durP2;ratioP2;P2;SDS_P1;SDS_P2;PMS_P1;PMS_P2;Temp;Humidity;BMP_temperature;BMP_pressure;BME280_temperature;BME280_humidity;BME280_pressure;Samples;Min_cycle;Max_cycle;Signal;HPM_P1;HPM_P2
2022/11/04 00:02:09;;;;;;;4.63;3.47;;;;;;;;;;5093401;28;20195;-44
2022/11/04 00:04:35;;;;;;;5.93;3.60;;;;;;;;;;5093322;28;20195;-44
2022/11/04 00:08:22;;;;;;;4.20;3.13;;;;;;;;;;5091235;28;20194;-44
2022/11/04 00:09:47;;;;;;;4.93;4.07;;;;;;;;;;5090135;28;20203;-44
2022/11/04 00:12:24;;;;;;;4.40;3.70;;;;;;;;;;5092960;28;20218;-44
2022/11/04 00:14:50;;;;;;;5.63;3.50;;;;;;;;;;5093138;28;20203;-44
2022/11/04 00:17:20;;;;;;;4.10;3.70;;;;;;;;;;5092937;28;20218;-44
2022/11/04 00:30:47;;;;;;;6.07;4.10;;;;;;;;;;5092395;28;20205;-44
2022/11/04 00:33:25;;;;;;;8.03;3.77;;;;;;;;;;5091867;28;20231;-44
2022/11/04 00:35:52;;;;;;;4.37;3.70;;;;;;;;;;5092080;28;20506;-44
2022/11/04 00:38:18;;;;;;;6.30;3.97;;;;;;;;;;5092320;28;20190;-44
2022/11/04 00:40:45;;;;;;;5.50;3.90;;;;;;;;;;5092263;28;20195;-44
2022/11/04 00:43:12;;;;;;;6.63;3.50;;;;;;;;;;5091412;28;20199;-43
2022/11/04 00:45:40;;;;;;;3.90;3.50;;;;;;;;;;5091857;28;20199;-43
2022/11/04 00:48:06;;;;;;;4.47;3.87;;;;;;;;;;5092040;28;20591;-43
2022/11/04 00:50:32;;;;;;;3.67;3.37;;;;;;;;;;5090774;28;20284;-44
2022/11/04 00:52:59;;;;;;;4.17;3.73;;;;;;;;;;5091547;28;20626;-43
2022/11/04 00:55:25;;;;;;;6.17;3.70;;;;;;;;;;5091850;28;20681;-44
2022/11/04 00:57:51;;;;;;;5.60;3.70;;;;;;;;;;5092064;28;20201;-44
2022/11/04 01:00:18;;;;;;;5.80;3.50;;;;;;;;;;5090941;28;20248;-44
2022/11/04 01:02:45;;;;;;;4.77;3.90;;;;;;;;;;5092160;28;20221;-44
2022/11/04 01:05:11;;;;;;;4.20;3.80;;;;;;;;;;5092123;28;20212;-44
2022/11/04 01:07:37;;;;;;;5.57;3.43;;;;;;;;;;5092026;28;20206;-44
2022/11/04 01:10:03;;;;;;;6.20;3.90;;;;;;;;;;5092133;28;20194;-44
2022/11/04 01:12:29;;;;;;;6.93;3.70;;;;;;;;;;5091900;28;20237;-44
2022/11/04 01:14:55;;;;;;;4.30;3.90;;;;;;;;;;5092104;28;20202;-44
2022/11/04 01:17:23;;;;;;;4.10;3.70;;;;;;;;;;5091690;28;20653;-43
2022/11/04 01:19:49;;;;;;;4.87;3.30;;;;;;;;;;5091506;28;20674;-44
2022/11/04 01:22:15;;;;;;;3.93;3.50;;;;;;;;;;5091148;28;20257;-44
2022/11/04 01:24:41;;;;;;;4.73;3.80;;;;;;;;;;5091825;28;20252;-44
2022/11/04 01:27:07;;;;;;;3.97;3.57;;;;;;;;;;5091454;28;20203;-44
2022/11/04 01:29:33;;;;;;;4.30;3.90;;;;;;;;;;5092005;28;20206;-44
2022/11/04 01:31:59;;;;;;;4.30;3.50;;;;;;;;;;5091764;28;20227;-44
2022/11/04 01:34:26;;;;;;;6.07;4.07;;;;;;;;;;5091575;28;20582;-44
2022/11/04 01:36:52;;;;;;;3.90;3.50;;;;;;;;;;5091697;28;20244;-44
2022/11/04 01:39:18;;;;;;;6.80;3.77;;;;;;;;;;5091352;28;20190;-44
2022/11/04 01:41:44;;;;;;;4.60;3.67;;;;;;;;;;5091219;28;20534;-44
2022/11/04 01:44:29;;;;;;;4.80;3.50;;;;;;;;;;5091232;28;20662;-44
2022/11/04 01:46:55;;;;;;;5.53;3.73;;;;;;;;;;5091637;28;20183;-44
2022/11/04 01:49:23;;;;;;;5.57;4.07;;;;;;;;;;5091392;28;20195;-44
2022/11/04 01:51:52;;;;;;;5.20;4.03;;;;;;;;;;5091136;28;20234;-44
2022/11/04 01:54:19;;;;;;;4.90;3.90;;;;;;;;;;5091312;28;20285;-44
2022/11/04 01:56:45;;;;;;;4.10;3.77;;;;;;;;;;5091448;28;20709;-44
2022/11/04 01:59:14;;;;;;;3.97;3.57;;;;;;;;;;5091308;28;20202;-44
2022/11/04 02:01:41;;;;;;;4.97;4.03;;;;;;;;;;5091067;28;20202;-44
2022/11/04 02:04:27;;;;;;;5.17;3.30;;;;;;;;;;5091759;28;20277;-44
2022/11/04 02:06:56;;;;;;;6.97;3.70;;;;;;;;;;5091413;28;20213;-44
2022/11/04 02:09:23;;;;;;;3.83;3.30;;;;;;;;;;5091058;28;20223;-44
2022/11/04 02:14:34;;;;;;;6.50;4.17;;;;;;;;;;5091332;28;20193;-44
2022/11/04 02:17:03;;;;;;;5.10;3.87;;;;;;;;;;5091413;28;20203;-44
2022/11/04 02:19:40;;;;;;;4.53;4.13;;;;;;;;;;5091088;28;20737;-44
2022/11/04 02:22:27;;;;;;;5.53;3.67;;;;;;;;;;5087297;28;20565;-44
2022/11/04 02:25:19;;;;;;;4.20;3.63;;;;;;;;;;5085298;28;20277;-44
2022/11/04 02:27:52;;;;;;;3.77;3.47;;;;;;;;;;5091194;28;20203;-44
2022/11/04 02:30:20;;;;;;;3.50;3.20;;;;;;;;;;5091110;28;20567;-44
2022/11/04 02:33:05;;;;;;;3.43;3.13;;;;;;;;;;5091060;28;20622;-44
2022/11/04 02:35:35;;;;;;;3.30;3.00;;;;;;;;;;5094772;28;20225;-44
2022/11/04 02:38:06;;;;;;;3.70;3.40;;;;;;;;;;5094836;28;20198;-44
2022/11/04 02:40:35;;;;;;;3.83;2.80;;;;;;;;;;5094978;28;20195;-44
2022/11/04 02:43:03;;;;;;;3.57;2.90;;;;;;;;;;5094658;28;20183;-44
2022/11/04 02:45:35;;;;;;;3.00;2.70;;;;;;;;;;5094724;28;20218;-44
2022/11/04 02:48:03;;;;;;;2.90;2.70;;;;;;;;;;5094897;28;20617;-44
2022/11/04 02:50:32;;;;;;;2.80;2.43;;;;;;;;;;5094514;28;20230;-44
2022/11/04 02:53:01;;;;;;;2.50;2.30;;;;;;;;;;5094507;28;20233;-44
2022/11/04 02:55:29;;;;;;;2.70;2.50;;;;;;;;;;5094393;28;20221;-44
2022/11/04 02:57:57;;;;;;;3.27;2.33;;;;;;;;;;5094415;28;20210;-44
2022/11/04 03:00:23;;;;;;;2.10;1.90;;;;;;;;;;5094370;28;20226;-44
2022/11/04 03:02:53;;;;;;;1.90;1.80;;;;;;;;;;5094534;28;20565;-44
2022/11/04 03:05:22;;;;;;;2.13;1.90;;;;;;;;;;5094347;28;20187;-44
2022/11/04 03:07:49;;;;;;;1.90;1.67;;;;;;;;;;5094120;28;20298;-44
2022/11/04 03:10:16;;;;;;;1.73;1.60;;;;;;;;;;5094262;28;20686;-44
2022/11/04 03:12:44;;;;;;;1.60;1.50;;;;;;;;;;5094135;28;20229;-44
2022/11/04 03:15:14;;;;;;;1.77;1.67;;;;;;;;;;5094275;28;20199;-44
2022/11/04 03:17:42;;;;;;;1.60;1.50;;;;;;;;;;5094001;28;20810;-44
2022/11/04 03:20:13;;;;;;;2.03;1.50;;;;;;;;;;5093392;28;20498;-44
2022/11/04 03:22:39;;;;;;;1.60;1.50;;;;;;;;;;5092529;28;20674;-44
2022/11/04 03:25:06;;;;;;;1.97;1.40;;;;;;;;;;5094170;28;20199;-44
2022/11/04 03:27:34;;;;;;;3.47;1.90;;;;;;;;;;5093698;28;20340;-44
2022/11/04 03:30:01;;;;;;;2.07;1.80;;;;;;;;;;5094026;28;20202;-44
2022/11/04 03:32:32;;;;;;;2.00;1.83;;;;;;;;;;5093600;28;20723;-44
2022/11/04 03:34:58;;;;;;;4.53;1.90;;;;;;;;;;5093841;28;20202;-44
2022/11/04 03:37:25;;;;;;;2.43;1.50;;;;;;;;;;5093541;28;20551;-44
2022/11/04 03:39:51;;;;;;;2.93;2.10;;;;;;;;;;5093812;28;20199;-44
2022/11/04 03:42:18;;;;;;;1.90;1.63;;;;;;;;;;5093481;28;20303;-44
2022/11/04 03:44:45;;;;;;;2.70;2.10;;;;;;;;;;5093305;28;20671;-44
2022/11/04 03:47:11;;;;;;;1.80;1.70;;;;;;;;;;5093632;28;20194;-44
2022/11/04 03:49:37;;;;;;;1.93;1.83;;;;;;;;;;5093568;28;20201;-44
2022/11/04 03:52:03;;;;;;;2.67;1.90;;;;;;;;;;5093265;28;20263;-44
2022/11/04 03:54:34;;;;;;;2.97;2.63;;;;;;;;;;5093397;28;20207;-44
2022/11/04 03:57:10;;;;;;;2.70;2.50;;;;;;;;;;5093464;28;20214;-44
2022/11/04 03:59:44;;;;;;;2.97;2.73;;;;;;;;;;5093543;28;20600;-44
2022/11/04 04:02:13;;;;;;;2.97;2.77;;;;;;;;;;5093383;28;20567;-44
2022/11/04 04:04:44;;;;;;;3.10;2.80;;;;;;;;;;5092963;28;20234;-44
2022/11/04 04:07:12;;;;;;;3.57;3.27;;;;;;;;;;5092976;28;20256;-44
2022/11/04 04:09:40;;;;;;;3.43;3.13;;;;;;;;;;5093247;28;20214;-44
2022/11/04 04:12:10;;;;;;;4.43;3.33;;;;;;;;;;5092254;28;20280;-44
2022/11/04 04:14:39;;;;;;;4.10;3.13;;;;;;;;;;5092715;28;20195;-44
2022/11/04 04:17:08;;;;;;;4.97;3.90;;;;;;;;;;5093262;28;20199;-44
2022/11/04 04:19:34;;;;;;;5.20;3.77;;;;;;;;;;5092834;28;20562;-44
2022/11/04 04:22:02;;;;;;;3.77;3.50;;;;;;;;;;5092971;28;20199;-44
2022/11/04 04:27:31;;;;;;;4.20;3.37;;;;;;;;;;5092814;28;20578;-44
2022/11/04 04:29:58;;;;;;;4.00;3.70;;;;;;;;;;5092528;28;20649;-44
2022/11/04 04:32:25;;;;;;;3.90;3.60;;;;;;;;;;5092658;28;20230;-44
2022/11/04 04:35:40;;;;;;;4.27;3.87;;;;;;;;;;5092725;28;20195;-44
2022/11/04 04:37:39;;;;;;;4.50;4.10;;;;;;;;;;5092243;28;20209;-44
2022/11/04 04:45:38;;;;;;;5.50;3.90;;;;;;;;;;5092483;28;20198;-43
2022/11/04 04:48:12;;;;;;;4.10;3.80;;;;;;;;;;5092312;28;20199;-44
2022/11/04 04:50:40;;;;;;;4.40;4.00;;;;;;;;;;5092200;28;20241;-44
2022/11/04 04:53:06;;;;;;;4.10;3.70;;;;;;;;;;5092152;28;20704;-44
2022/11/04 04:55:32;;;;;;;4.37;4.07;;;;;;;;;;5091541;28;20282;-44
2022/11/04 04:57:59;;;;;;;4.27;3.97;;;;;;;;;;5092048;28;20195;-44
2022/11/04 05:00:26;;;;;;;4.53;4.00;;;;;;;;;;5092190;28;20253;-44
2022/11/04 05:02:52;;;;;;;4.20;3.90;;;;;;;;;;5092245;28;20195;-44
2022/11/04 05:05:19;;;;;;;4.83;4.43;;;;;;;;;;5092299;28;20195;-44
2022/11/04 05:07:45;;;;;;;4.77;4.33;;;;;;;;;;5092059;28;20219;-44
2022/11/04 05:10:12;;;;;;;4.83;4.30;;;;;;;;;;5092056;28;20201;-44
2022/11/04 05:15:25;;;;;;;4.50;4.10;;;;;;;;;;5091961;28;20193;-44
2022/11/04 05:17:53;;;;;;;4.00;3.60;;;;;;;;;;5091912;28;20220;-44
2022/11/04 05:20:19;;;;;;;4.23;3.67;;;;;;;;;;5092030;28;20259;-44
2022/11/04 05:22:45;;;;;;;4.40;4.00;;;;;;;;;;5091795;28;20191;-44
2022/11/04 05:25:11;;;;;;;4.27;3.97;;;;;;;;;;5091783;28;20557;-44
2022/11/04 05:27:37;;;;;;;4.37;4.07;;;;;;;;;;5091736;28;20204;-44
2022/11/04 05:30:03;;;;;;;4.30;4.00;;;;;;;;;;5091810;28;20195;-44
2022/11/04 05:32:31;;;;;;;4.70;4.30;;;;;;;;;;5091475;28;20210;-45
2022/11/04 05:34:57;;;;;;;5.13;4.20;;;;;;;;;;5091735;28;20226;-44
2022/11/04 05:37:23;;;;;;;3.87;3.57;;;;;;;;;;5091525;28;20190;-44
2022/11/04 05:39:49;;;;;;;4.40;4.00;;;;;;;;;;5091579;28;20198;-44
2022/11/04 05:42:15;;;;;;;4.50;4.10;;;;;;;;;;5091467;28;20213;-44
2022/11/04 05:44:41;;;;;;;4.23;3.93;;;;;;;;;;5091600;28;20274;-44
2022/11/04 05:47:07;;;;;;;4.27;3.97;;;;;;;;;;5091504;28;20696;-44
2022/11/04 05:49:35;;;;;;;4.90;4.50;;;;;;;;;;5091253;28;20688;-44
2022/11/04 05:52:01;;;;;;;5.83;5.20;;;;;;;;;;5090761;28;20292;-44
2022/11/04 05:54:27;;;;;;;5.53;5.13;;;;;;;;;;5090767;28;20242;-44
2022/11/04 05:56:53;;;;;;;5.10;4.63;;;;;;;;;;5090295;28;20195;-44
2022/11/04 05:59:19;;;;;;;5.40;4.90;;;;;;;;;;5090561;28;20201;-44
2022/11/04 06:01:45;;;;;;;6.77;4.63;;;;;;;;;;5090787;28;20248;-44
2022/11/04 06:04:13;;;;;;;5.73;5.13;;;;;;;;;;5091325;28;20289;-44
2022/11/04 06:06:41;;;;;;;5.60;5.10;;;;;;;;;;5090570;28;20199;-44
2022/11/04 06:09:07;;;;;;;6.00;5.50;;;;;;;;;;5094659;28;20355;-44
2022/11/04 06:11:33;;;;;;;17.87;11.43;;;;;;;;;;5094404;28;20205;-44
2022/11/04 06:13:59;;;;;;;14.70;11.10;;;;;;;;;;5094770;28;20593;-44
2022/11/04 06:16:26;;;;;;;7.03;6.33;;;;;;;;;;5093879;28;20692;-44
2022/11/04 06:18:52;;;;;;;6.67;6.03;;;;;;;;;;5094091;28;20195;-44
2022/11/04 06:21:24;;;;;;;7.07;6.37;;;;;;;;;;5094217;28;20625;-44
2022/11/04 06:23:52;;;;;;;6.77;6.17;;;;;;;;;;5094944;28;20203;-44
2022/11/04 06:26:18;;;;;;;7.07;6.47;;;;;;;;;;5094741;28;20190;-44
2022/11/04 06:28:44;;;;;;;6.37;5.87;;;;;;;;;;5094946;28;20641;-44
2022/11/04 06:31:11;;;;;;;7.13;6.50;;;;;;;;;;5094697;28;20587;-44
2022/11/04 06:33:37;;;;;;;7.90;6.50;;;;;;;;;;5094033;28;20732;-44
2022/11/04 06:36:04;;;;;;;6.10;5.60;;;;;;;;;;5092473;28;20739;-44
2022/11/04 06:38:36;;;;;;;7.50;6.80;;;;;;;;;;5093811;28;20241;-44
2022/11/04 06:41:04;;;;;;;6.80;5.97;;;;;;;;;;5094703;28;20256;-44
2022/11/04 06:43:30;;;;;;;7.63;6.87;;;;;;;;;;5094644;28;20219;-44
2022/11/04 06:45:57;;;;;;;6.83;6.23;;;;;;;;;;5094828;28;20190;-44
2022/11/04 06:48:23;;;;;;;6.57;5.87;;;;;;;;;;5094007;28;20187;-44
2022/11/04 06:50:49;;;;;;;6.63;5.97;;;;;;;;;;5093923;28;20258;-44
2022/11/04 06:53:15;;;;;;;7.13;6.47;;;;;;;;;;5093130;28;20233;-44
2022/11/04 06:55:42;;;;;;;6.80;6.20;;;;;;;;;;5094626;28;20629;-44
2022/11/04 06:58:10;;;;;;;7.20;6.60;;;;;;;;;;5094300;28;20190;-44
2022/11/04 07:00:36;;;;;;;6.63;6.03;;;;;;;;;;5094625;28;20231;-44
2022/11/04 07:03:02;;;;;;;7.10;6.43;;;;;;;;;;5094274;28;20724;-44
2022/11/04 07:05:28;;;;;;;7.47;6.87;;;;;;;;;;5094122;28;20199;-44
2022/11/04 07:07:55;;;;;;;8.50;7.70;;;;;;;;;;5093638;28;20211;-44
2022/11/04 07:10:21;;;;;;;7.93;7.20;;;;;;;;;;5093343;28;20679;-44
2022/11/04 07:12:47;;;;;;;7.80;7.03;;;;;;;;;;5093561;28;20262;-44
2022/11/04 07:15:14;;;;;;;7.23;6.53;;;;;;;;;;5092806;28;20238;-44
2022/11/04 07:17:42;;;;;;;6.77;6.17;;;;;;;;;;5093646;28;20218;-44
2022/11/04 07:20:11;;;;;;;7.13;6.43;;;;;;;;;;5093002;28;20209;-44
2022/11/04 07:22:37;;;;;;;7.27;6.50;;;;;;;;;;5093528;28;20274;-46
2022/11/04 07:25:04;;;;;;;6.97;6.37;;;;;;;;;;5092602;28;20277;-44
2022/11/04 07:27:30;;;;;;;7.40;6.37;;;;;;;;;;5092181;28;20203;-44
2022/11/04 07:29:56;;;;;;;7.33;6.63;;;;;;;;;;5093794;28;20248;-44
2022/11/04 07:32:23;;;;;;;6.63;6.03;;;;;;;;;;5093600;28;20284;-44
2022/11/04 07:34:49;;;;;;;6.83;6.20;;;;;;;;;;5094109;28;20199;-45
2022/11/04 07:37:15;;;;;;;6.90;6.27;;;;;;;;;;5093810;28;20285;-45
2022/11/04 07:39:41;;;;;;;6.70;6.10;;;;;;;;;;5093741;28;20290;-45
2022/11/04 07:42:08;;;;;;;7.40;6.70;;;;;;;;;;5093893;28;20227;-45
2022/11/04 07:44:34;;;;;;;7.73;6.60;;;;;;;;;;5093532;28;20209;-45
2022/11/04 07:47:00;;;;;;;7.53;6.10;;;;;;;;;;5093403;28;20286;-45
2022/11/04 07:49:27;;;;;;;7.03;6.33;;;;;;;;;;5093427;28;20282;-44
2022/11/04 07:51:53;;;;;;;5.90;5.37;;;;;;;;;;5093326;28;20266;-44
2022/11/04 07:54:19;;;;;;;6.77;6.10;;;;;;;;;;5093481;28;20206;-43
2022/11/04 07:56:45;;;;;;;6.50;6.00;;;;;;;;;;5093331;28;20242;-44
2022/11/04 07:59:11;;;;;;;7.33;6.67;;;;;;;;;;5092428;28;20199;-44
2022/11/04 08:01:37;;;;;;;7.80;6.23;;;;;;;;;;5092777;28;20195;-44
2022/11/04 08:04:04;;;;;;;7.50;6.40;;;;;;;;;;5093371;28;20187;-44
2022/11/04 08:06:31;;;;;;;8.33;5.70;;;;;;;;;;5093020;28;20202;-45
2022/11/04 08:08:57;;;;;;;6.63;5.67;;;;;;;;;;5093272;28;20268;-45
2022/11/04 08:11:24;;;;;;;8.03;7.23;;;;;;;;;;5092166;28;20206;-44
2022/11/04 08:13:50;;;;;;;8.50;6.60;;;;;;;;;;5092200;28;20299;-45
2022/11/04 08:16:17;;;;;;;6.60;5.90;;;;;;;;;;5091455;28;20199;-45
2022/11/04 08:18:44;;;;;;;8.93;6.30;;;;;;;;;;5093095;28;20672;-45
2022/11/04 08:21:10;;;;;;;7.80;6.90;;;;;;;;;;5092799;28;20667;-45
2022/11/04 08:23:38;;;;;;;6.23;5.37;;;;;;;;;;5092808;28;20187;-44
2022/11/04 08:26:06;;;;;;;10.40;6.50;;;;;;;;;;5092763;28;20282;-45
2022/11/04 08:28:33;;;;;;;7.43;6.23;;;;;;;;;;5092736;28;20278;-45
2022/11/04 08:31:01;;;;;;;6.87;6.13;;;;;;;;;;5091744;28;20623;-46
2022/11/04 08:33:28;;;;;;;6.60;5.60;;;;;;;;;;5092287;28;20284;-47
2022/11/04 08:35:54;;;;;;;8.23;5.87;;;;;;;;;;5092610;28;20692;-44
2022/11/04 08:38:20;;;;;;;7.63;6.20;;;;;;;;;;5092523;28;20727;-45
2022/11/04 08:40:48;;;;;;;7.13;6.17;;;;;;;;;;5092464;28;20688;-44
2022/11/04 08:43:14;;;;;;;7.10;6.17;;;;;;;;;;5092614;28;20191;-44
2022/11/04 08:45:41;;;;;;;9.57;6.10;;;;;;;;;;5092491;28;20718;-44
2022/11/04 08:48:07;;;;;;;8.07;6.27;;;;;;;;;;5092466;28;20699;-44
2022/11/04 08:50:33;;;;;;;8.07;5.73;;;;;;;;;;5092055;28;20513;-44
2022/11/04 08:52:59;;;;;;;7.17;6.30;;;;;;;;;;5092255;28;20234;-44
2022/11/04 08:55:25;;;;;;;6.60;5.80;;;;;;;;;;5092340;28;20672;-45
2022/11/04 08:57:53;;;;;;;6.73;5.33;;;;;;;;;;5092333;28;20207;-45
2022/11/04 09:00:19;;;;;;;7.13;5.93;;;;;;;;;;5092150;28;20195;-45
2022/11/04 09:02:46;;;;;;;6.03;5.50;;;;;;;;;;5091981;28;20191;-45
2022/11/04 09:05:13;;;;;;;9.63;5.70;;;;;;;;;;5091879;28;20472;-44
2022/11/04 09:07:39;;;;;;;7.43;5.50;;;;;;;;;;5091943;28;20673;-46
2022/11/04 09:10:06;;;;;;;6.43;5.63;;;;;;;;;;5092057;28;20399;-45
2022/11/04 09:12:32;;;;;;;7.33;5.67;;;;;;;;;;5091781;28;20294;-45
2022/11/04 09:14:59;;;;;;;7.23;5.13;;;;;;;;;;5092018;28;20269;-44
2022/11/04 09:17:26;;;;;;;5.90;5.30;;;;;;;;;;5091832;28;20228;-45
2022/11/04 09:19:52;;;;;;;5.50;5.00;;;;;;;;;;5091749;28;20205;-46
2022/11/04 09:22:18;;;;;;;6.43;5.00;;;;;;;;;;5091603;28;20281;-45
2022/11/04 09:24:44;;;;;;;7.13;5.60;;;;;;;;;;5091791;28;20249;-45
2022/11/04 09:27:10;;;;;;;5.47;4.93;;;;;;;;;;5091835;28;20696;-45
2022/11/04 09:29:36;;;;;;;5.97;4.77;;;;;;;;;;5091475;28;20211;-45
2022/11/04 09:32:04;;;;;;;5.87;5.27;;;;;;;;;;5091582;28;20201;-45
2022/11/04 09:34:30;;;;;;;7.13;5.27;;;;;;;;;;5091458;28;20575;-45
2022/11/04 09:36:56;;;;;;;5.30;4.80;;;;;;;;;;5091552;28;20282;-45
2022/11/04 09:39:22;;;;;;;6.07;4.90;;;;;;;;;;5091596;28;20221;-45
2022/11/04 09:41:57;;;;;;;6.17;4.57;;;;;;;;;;5091344;28;20657;-45
2022/11/04 09:44:26;;;;;;;5.50;4.70;;;;;;;;;;5091604;28;20193;-45
2022/11/04 09:46:53;;;;;;;6.60;5.10;;;;;;;;;;5091409;28;20236;-45
2022/11/04 09:49:21;;;;;;;5.67;4.67;;;;;;;;;;5090791;28;20191;-45
2022/11/04 09:51:48;;;;;;;4.97;4.57;;;;;;;;;;5090328;28;20230;-45
2022/11/04 09:54:17;;;;;;;5.97;5.33;;;;;;;;;;5091079;28;20313;-44
2022/11/04 09:56:45;;;;;;;5.67;5.13;;;;;;;;;;5091142;28;20205;-45
2022/11/04 09:59:14;;;;;;;5.40;4.80;;;;;;;;;;5091477;28;20199;-45
2022/11/04 10:01:43;;;;;;;5.80;4.97;;;;;;;;;;5090457;28;20229;-45
2022/11/04 10:04:16;;;;;;;6.20;5.03;;;;;;;;;;5091149;28;20627;-45
2022/11/04 10:06:53;;;;;;;6.33;5.07;;;;;;;;;;5090687;28;20677;-45
2022/11/04 10:09:25;;;;;;;7.03;5.00;;;;;;;;;;5090301;28;20219;-45
2022/11/04 10:11:56;;;;;;;5.40;4.90;;;;;;;;;;5090794;28;20712;-45
2022/11/04 10:14:30;;;;;;;4.30;4.00;;;;;;;;;;5090980;28;20607;-44
2022/11/04 10:17:01;;;;;;;4.80;4.27;;;;;;;;;;5090547;28;20199;-45
2022/11/04 10:19:36;;;;;;;5.27;4.00;;;;;;;;;;5091618;28;20278;-45
2022/11/04 10:22:10;;;;;;;6.20;4.40;;;;;;;;;;5089976;28;20186;-45
2022/11/04 10:24:41;;;;;;;4.30;3.90;;;;;;;;;;5089258;28;20195;-44
2022/11/04 10:27:11;;;;;;;9.20;4.30;;;;;;;;;;5090842;28;20569;-45
2022/11/04 10:29:40;;;;;;;5.00;4.50;;;;;;;;;;5090622;28;20199;-44
2022/11/04 10:32:10;;;;;;;4.80;4.30;;;;;;;;;;5090747;28;20662;-44
2022/11/04 10:34:39;;;;;;;5.13;4.60;;;;;;;;;;5090510;28;20227;-46
2022/11/04 10:37:08;;;;;;;7.13;5.10;;;;;;;;;;5090837;28;20222;-46
2022/11/04 10:39:36;;;;;;;9.87;8.87;;;;;;;;;;5090603;28;20252;-46
2022/11/04 10:42:03;;;;;;;8.57;6.40;;;;;;;;;;5090938;28;20534;-46
2022/11/04 10:44:31;;;;;;;5.43;4.67;;;;;;;;;;5090816;28;20252;-46
2022/11/04 10:47:01;;;;;;;4.93;4.43;;;;;;;;;;5091077;28;20206;-46
2022/11/04 10:49:41;;;;;;;4.43;4.03;;;;;;;;;;5090677;28;20195;-46
2022/11/04 10:52:08;;;;;;;5.50;4.37;;;;;;;;;;5090403;28;20244;-46
2022/11/04 10:54:38;;;;;;;5.20;4.70;;;;;;;;;;5092071;28;20298;-46
2022/11/04 10:57:04;;;;;;;4.90;4.30;;;;;;;;;;5094511;28;20282;-46
2022/11/04 10:59:34;;;;;;;4.90;4.40;;;;;;;;;;5094701;28;20203;-45
2022/11/04 11:02:01;;;;;;;5.00;4.10;;;;;;;;;;5094802;28;20194;-46
2022/11/04 11:04:28;;;;;;;6.30;4.13;;;;;;;;;;5094321;28;20190;-45
2022/11/04 11:06:55;;;;;;;4.27;3.87;;;;;;;;;;5093851;28;20691;-46
2022/11/04 11:09:27;;;;;;;4.63;4.07;;;;;;;;;;5093682;28;20210;-45
2022/11/04 11:11:54;;;;;;;6.70;4.00;;;;;;;;;;5093391;28;20207;-46
2022/11/04 11:14:31;;;;;;;4.23;3.83;;;;;;;;;;5093415;28;20223;-46
2022/11/04 11:16:58;;;;;;;5.27;4.07;;;;;;;;;;5094353;28;20206;-45
2022/11/04 11:19:25;;;;;;;5.27;4.10;;;;;;;;;;5094311;28;20290;-45
2022/11/04 11:21:51;;;;;;;5.57;4.23;;;;;;;;;;5094045;28;20194;-46
2022/11/04 11:24:19;;;;;;;4.33;3.93;;;;;;;;;;5094408;28;20198;-46
2022/11/04 11:26:48;;;;;;;3.80;3.50;;;;;;;;;;5094072;28;20199;-45
2022/11/04 11:29:20;;;;;;;4.20;3.80;;;;;;;;;;5093913;28;20199;-46
2022/11/04 11:31:46;;;;;;;4.17;3.73;;;;;;;;;;5094023;28;20660;-45
2022/11/04 11:34:15;;;;;;;5.20;4.40;;;;;;;;;;5093901;28;20254;-46
2022/11/04 11:36:43;;;;;;;5.87;4.07;;;;;;;;;;5093929;28;20199;-46
2022/11/04 11:39:15;;;;;;;6.17;3.90;;;;;;;;;;5094043;28;20202;-45
2022/11/04 11:41:49;;;;;;;4.20;3.40;;;;;;;;;;5093824;28;20203;-45
2022/11/04 11:44:22;;;;;;;4.23;3.43;;;;;;;;;;5093879;28;20256;-45
2022/11/04 11:46:51;;;;;;;3.83;3.17;;;;;;;;;;5093622;28;20199;-45
2022/11/04 11:49:24;;;;;;;5.33;3.50;;;;;;;;;;5093409;28;20260;-45
2022/11/04 11:51:50;;;;;;;3.60;3.20;;;;;;;;;;5093570;28;20242;-45
2022/11/04 11:54:18;;;;;;;4.20;3.13;;;;;;;;;;5093676;28;20238;-45
2022/11/04 11:56:47;;;;;;;4.80;3.03;;;;;;;;;;5093547;28;20198;-45
2022/11/04 11:59:20;;;;;;;3.67;3.03;;;;;;;;;;5093683;28;20203;-45
2022/11/04 12:01:49;;;;;;;4.77;3.00;;;;;;;;;;5093437;28;20661;-45
2022/11/04 12:04:15;;;;;;;3.57;3.17;;;;;;;;;;5093351;28;20190;-45
2022/11/04 12:06:47;;;;;;;4.77;3.20;;;;;;;;;;5092749;28;20194;-45
2022/11/04 12:09:19;;;;;;;5.17;2.70;;;;;;;;;;5092722;28;20215;-45
2022/11/04 12:11:51;;;;;;;2.93;2.50;;;;;;;;;;5092408;28;20742;-45
2022/11/04 12:14:24;;;;;;;4.87;2.83;;;;;;;;;;5092605;28;20284;-45
2022/11/04 12:16:56;;;;;;;3.33;3.03;;;;;;;;;;5093226;28;20199;-45
2022/11/04 12:19:29;;;;;;;3.83;3.43;;;;;;;;;;5093210;28;20195;-45
2022/11/04 12:21:59;;;;;;;3.00;2.70;;;;;;;;;;5092436;28;20202;-46
2022/11/04 12:24:30;;;;;;;4.33;2.60;;;;;;;;;;5092757;28;20204;-45
2022/11/04 12:27:00;;;;;;;5.50;4.03;;;;;;;;;;5091908;28;20199;-46
2022/11/04 12:29:35;;;;;;;3.60;3.00;;;;;;;;;;5092779;28;20713;-46
2022/11/04 12:32:06;;;;;;;4.90;3.50;;;;;;;;;;5093033;28;20204;-46
2022/11/04 12:34:38;;;;;;;4.17;3.10;;;;;;;;;;5092386;28;20340;-46
2022/11/04 12:37:12;;;;;;;3.30;3.00;;;;;;;;;;5092368;28;20195;-47
2022/11/04 12:39:46;;;;;;;25.47;22.97;;;;;;;;;;5092752;28;20199;-46
2022/11/04 12:42:16;;;;;;;6.17;5.43;;;;;;;;;;5093096;28;20205;-46
2022/11/04 12:44:49;;;;;;;5.73;3.53;;;;;;;;;;5093020;28;20714;-46
2022/11/04 12:47:22;;;;;;;4.10;3.63;;;;;;;;;;5093019;28;20203;-46
2022/11/04 12:50:06;;;;;;;4.50;3.10;;;;;;;;;;5092779;28;20202;-46
2022/11/04 12:52:53;;;;;;;17.77;15.47;;;;;;;;;;5092439;28;20221;-46
2022/11/04 12:55:28;;;;;;;8.90;4.50;;;;;;;;;;5087622;28;20249;-46
2022/11/04 12:57:58;;;;;;;3.27;2.83;;;;;;;;;;5092878;28;20198;-46
2022/11/04 13:00:27;;;;;;;5.90;4.63;;;;;;;;;;5092745;28;20205;-45
2022/11/04 13:02:56;;;;;;;3.83;3.30;;;;;;;;;;5092737;28;20199;-45
2022/11/04 13:05:27;;;;;;;8.87;7.97;;;;;;;;;;5092570;28;20184;-46
2022/11/04 13:07:56;;;;;;;3.70;3.40;;;;;;;;;;5092209;28;20681;-46
2022/11/04 13:10:24;;;;;;;3.80;3.50;;;;;;;;;;5092535;28;20191;-45
2022/11/04 13:12:52;;;;;;;3.50;3.20;;;;;;;;;;5091936;28;20261;-45
2022/11/04 13:15:19;;;;;;;5.13;3.50;;;;;;;;;;5092130;28;20202;-45
2022/11/04 13:17:49;;;;;;;4.00;3.30;;;;;;;;;;5091607;28;20229;-46
2022/11/04 13:20:20;;;;;;;5.23;3.33;;;;;;;;;;5092355;28;20203;-46
2022/11/04 13:22:48;;;;;;;19.70;14.87;;;;;;;;;;5092086;28;20206;-46
2022/11/04 13:25:16;;;;;;;6.90;4.27;;;;;;;;;;5092127;28;20203;-46
2022/11/04 13:27:44;;;;;;;4.90;4.17;;;;;;;;;;5091951;28;20199;-45
2022/11/04 13:30:20;;;;;;;4.20;3.50;;;;;;;;;;5092053;28;20285;-46
2022/11/04 13:32:52;;;;;;;4.03;2.90;;;;;;;;;;5092005;28;20226;-46
2022/11/04 13:35:21;;;;;;;5.47;3.47;;;;;;;;;;5091625;28;20203;-46
2022/11/04 13:37:51;;;;;;;5.00;3.50;;;;;;;;;;5090770;28;20212;-45
2022/11/04 13:40:20;;;;;;;5.23;4.07;;;;;;;;;;5091227;28;20226;-46
2022/11/04 13:43:36;;;;;;;27.10;18.83;;;;;;;;;;5091271;28;20191;-46
2022/11/04 13:45:45;;;;;;;3.47;3.17;;;;;;;;;;5091080;28;20243;-45
2022/11/04 13:48:12;;;;;;;29.63;20.53;;;;;;;;;;5091404;28;20224;-45
2022/11/04 13:50:39;;;;;;;153.53;108.10;;;;;;;;;;5086251;28;20292;-46
2022/11/04 13:53:07;;;;;;;80.10;43.67;;;;;;;;;;5091105;28;20215;-46
2022/11/04 13:55:34;;;;;;;45.50;25.17;;;;;;;;;;5091242;28;20202;-46
2022/11/04 13:58:01;;;;;;;9.07;6.53;;;;;;;;;;5090371;28;20203;-46
2022/11/04 14:00:28;;;;;;;31.67;25.07;;;;;;;;;;5090681;28;20202;-46
2022/11/04 14:02:54;;;;;;;13.03;11.53;;;;;;;;;;5090398;28;20192;-46
2022/11/04 14:05:50;;;;;;;6.20;4.40;;;;;;;;;;5091013;28;20720;-46
2022/11/04 14:08:18;;;;;;;6.70;5.07;;;;;;;;;;5091389;28;20219;-46
2022/11/04 14:10:57;;;;;;;5.00;4.00;;;;;;;;;;5091268;28;20199;-46
2022/11/04 14:13:46;;;;;;;5.40;3.60;;;;;;;;;;5091192;28;20226;-46
2022/11/04 14:16:34;;;;;;;4.80;4.07;;;;;;;;;;5091156;28;20198;-46
2022/11/04 14:19:21;;;;;;;3.13;2.87;;;;;;;;;;5090891;28;20646;-46
2022/11/04 14:22:06;;;;;;;5.33;4.17;;;;;;;;;;5091084;28;20690;-47
2022/11/04 14:24:32;;;;;;;7.03;4.80;;;;;;;;;;5090665;28;20195;-46
2022/11/04 14:26:58;;;;;;;3.27;2.77;;;;;;;;;;5091054;28;20194;-46
2022/11/04 14:29:25;;;;;;;5.20;3.07;;;;;;;;;;5092139;28;20218;-46
2022/11/04 14:31:53;;;;;;;5.07;3.33;;;;;;;;;;5093334;28;20195;-46
2022/11/04 14:34:24;;;;;;;4.97;3.23;;;;;;;;;;5095185;28;20243;-46
2022/11/04 14:36:54;;;;;;;5.80;4.00;;;;;;;;;;5094304;28;20195;-44
2022/11/04 14:39:23;;;;;;;13.27;10.87;;;;;;;;;;5095214;28;20195;-45
2022/11/04 14:41:57;;;;;;;5.10;3.60;;;;;;;;;;5094998;28;20273;-45
2022/11/04 14:44:29;;;;;;;11.90;9.63;;;;;;;;;;5095021;28;20646;-44
2022/11/04 14:46:56;;;;;;;18.20;14.17;;;;;;;;;;5094975;28;20195;-44
2022/11/04 14:49:30;;;;;;;9.20;4.90;;;;;;;;;;5094933;28;20201;-45
2022/11/04 14:51:57;;;;;;;4.70;3.30;;;;;;;;;;5094873;28;20239;-46
2022/11/04 14:54:26;;;;;;;4.50;3.47;;;;;;;;;;5094838;28;20230;-46
2022/11/04 14:56:52;;;;;;;5.03;4.10;;;;;;;;;;5085347;28;20672;-45
2022/11/04 14:59:20;;;;;;;5.17;3.60;;;;;;;;;;5094734;28;20207;-45
2022/11/04 15:01:47;;;;;;;4.20;3.43;;;;;;;;;;5094222;28;20199;-45
2022/11/04 15:04:27;;;;;;;3.90;3.20;;;;;;;;;;5093918;28;20632;-45
2022/11/04 15:06:54;;;;;;;4.33;3.20;;;;;;;;;;5094057;28;20207;-45
2022/11/04 15:09:20;;;;;;;3.40;3.00;;;;;;;;;;5093519;28;20587;-45
2022/11/04 15:14:35;;;;;;;3.97;2.90;;;;;;;;;;5094566;28;20707;-44
2022/11/04 15:17:01;;;;;;;3.77;3.10;;;;;;;;;;5094643;28;20228;-46
2022/11/04 15:19:29;;;;;;;4.13;3.43;;;;;;;;;;5094320;28;20203;-44